Koushinmaru No.5 — JL6695 — position and weather

sailwx.info

Track history (hours):
 
Tides and Currents Weather Stations Pressure Air Temp Water Temp Dewpoint Dewpoint Depression Visibility Wind Speed Wind Dir Waves Ship Positions

Koushinmaru No.5

Last reported at 2017-May-22 09:24 UTC. Time now 2017-May-29 02:03 UTC.
Position N 34°55' E 139°46'.

Length 75 m; draft 3.3 m.

Type: Cargo ship. MMSI: 431301703.

Date/timePositionNaut miles runAvg speedWind from/ knotsBaromVisibWave heightAir tempDewpointWater temp
2017-May-22 09:24N 34°55' E 139°46'611.8
2017-May-22 08:54N 35°00' E 139°44'511.6
2017-May-22 08:30N 35°05' E 139°44'510.9
2017-May-22 08:00N 35°10' E 139°46'611.2
2017-May-22 07:30N 35°16' E 139°46'611.4
2017-May-22 07:00N 35°21' E 139°42'510.9
2017-May-22 06:30N 35°26' E 139°45'611.3
2017-May-22 06:01N 35°29' E 139°51'911.1
2017-May-22 05:14N 35°36' E 139°57'210.3
2017-May-22 05:00N 35°38' E 139°59'2 0.1
2017-May-21 05:13N 35°40' E 139°58'210.5
2017-May-21 04:59N 35°37' E 139°59'611.0
2017-May-21 04:29N 35°33' E 139°56'511.3
2017-May-21 04:00N 35°28' E 139°51'611.5
2017-May-21 03:30N 35°24' E 139°47'611.6
2017-May-21 03:01N 35°19' E 139°44'611.2
2017-May-21 02:30N 35°14' E 139°47'  
2017-May-14 21:51N 34°40' E 134°48'11 8.9
2017-May-14 20:35N 34°37' E 135°01'1 7.4
2017-May-14 20:28N 34°37' E 135°02'3 7.4
2017-May-14 20:00N 34°35' E 135°05'5 9.8
2017-May-14 19:31N 34°30' E 135°04'5 9.7
2017-May-14 18:59N 34°25' E 135°03'11 9.7
2017-May-14 17:53N 34°15' E 134°60'410.4
2017-May-14 17:30N 34°11' E 134°60'510.5
2017-May-14 17:00N 34°06' E 135°00'  
Track history (hours):
 
Tides and Currents Weather Stations Pressure Air Temp Water Temp Dewpoint Dewpoint Depression Visibility Wind Speed Wind Dir Waves Ship Positions

Koushinmaru No.5

Last reported at 2017-May-22 09:24 UTC. Time now 2017-May-29 02:03 UTC.
Position N 34°55' E 139°46'.

Length 75 m; draft 3.3 m.

Type: Cargo ship. MMSI: 431301703.

Date/timePositionNaut miles runAvg speedWind from/ knotsBaromVisibWave heightAir tempDewpointWater temp
2017-May-22 09:24N 34°55' E 139°46'611.8
2017-May-22 08:54N 35°00' E 139°44'511.6
2017-May-22 08:30N 35°05' E 139°44'510.9
2017-May-22 08:00N 35°10' E 139°46'611.2
2017-May-22 07:30N 35°16' E 139°46'611.4
2017-May-22 07:00N 35°21' E 139°42'510.9
2017-May-22 06:30N 35°26' E 139°45'611.3
2017-May-22 06:01N 35°29' E 139°51'911.1
2017-May-22 05:14N 35°36' E 139°57'210.3
2017-May-22 05:00N 35°38' E 139°59'2 0.1
2017-May-21 05:13N 35°40' E 139°58'210.5
2017-May-21 04:59N 35°37' E 139°59'611.0
2017-May-21 04:29N 35°33' E 139°56'511.3
2017-May-21 04:00N 35°28' E 139°51'611.5
2017-May-21 03:30N 35°24' E 139°47'611.6
2017-May-21 03:01N 35°19' E 139°44'611.2
2017-May-21 02:30N 35°14' E 139°47'  
2017-May-14 21:51N 34°40' E 134°48'11 8.9
2017-May-14 20:35N 34°37' E 135°01'1 7.4
2017-May-14 20:28N 34°37' E 135°02'3 7.4
2017-May-14 20:00N 34°35' E 135°05'5 9.8
2017-May-14 19:31N 34°30' E 135°04'5 9.7
2017-May-14 18:59N 34°25' E 135°03'11 9.7
2017-May-14 17:53N 34°15' E 134°60'410.4
2017-May-14 17:30N 34°11' E 134°60'510.5
2017-May-14 17:00N 34°06' E 135°00'  

Dump ship's entire track history